Aérodrome :
LOGIN :

S'inscrire | Disclaimer

   EN    FR    IT 

 










Légende :    VFR   VFR Marginal   IFR   IFR Intensif   IFR Très Intensif
Visi : 
Plafond : 
>= 8 km
>= 3000ft
5 à 8 km
1000 à 3000 ft
1500m à 5 km
500 à 1000 ft
800 à 1500m
200 à 500 ft
< 800m
< 200 ft
Symboles :   Orages  Brouillard  Fortes neiges  Fortes précipitations  Vent > 20 kt
SIGMETs :   Divers  Orages  Givrage  Turbulence  Onde Orograph.  Cendres Volcan.







- Altitude de l'aérodrome : 7 ft
- Code IATA : XHE
- Voir les cartes d'approche


LFTH - Hyeres

DERNIER METAR :
  • 130830Z AUTO 06012KT 030V090 9999 BKN018 OVC027 10/07 Q1011 TEMPO 07020G30KT SHRA BECMG FEW015TCU BKN027 BKN036

METARs EXPIRÉS :
  • 130800Z AUTO 05010KT 9999 FEW016 BKN030 BKN036 09/07 Q1011 TEMPO 10023G33KT BECMG RA FEW015CB BKN020
  • 130730Z AUTO 05008KT 9999 BKN015 BKN036 OVC052 09/08 Q1011 TEMPO 10023G33KT BECMG RA FEW015CB BKN020
  • 130700Z AUTO 04008KT 9999 SCT017 BKN023 OVC031 09/07 Q1011 BECMG RA FEW015CB BKN020
  • 130630Z AUTO 03007KT 9999 FEW016/// BKN026/// BKN032/// ///TCU 09/07 Q1012 BECMG 09013G23KT RA FEW015CB BKN020
  • 130600Z AUTO 04006KT 9999 BKN015/// BKN023/// BKN029/// ///TCU 09/07 Q1011 BECMG RA FEW015CB BKN020

TAF TAF LFTH
Valide du 13 à 09h jusqu'au 14 à 09h UTC


130800Z 1309/1409 05015KT 9999 FEW015TCU BKN027 BKN036
TEMPO 1309/1324 07020G30KT 6000 SHRA
BECMG 1402/1404 CAVOK
Pas de NOTAMs connus pour ce terrain.
1 SIGMET publié pour la FIR Marseille (LFMM) :
 
Givrage fort
LFMM SIGMET 1 VALID 130700/130900 LFPW
LFMM MARSEILLE FIR/UIR SEV ICE OBS AT 0655Z WI N4315 E00230 - N4430 E00245 - N4345 E00345 - N4315 E00330 - N4315 E00230 FL050/200 MOV SE 25KT NC=



MET'MAP, la Météo Aéronautique d'un coup d'oeil ! - Copyright ORBIFLY Décembre 2007 - Disclaimer

ORBIFLY MET'MAP TEAM :

Programmation & Développement : Alexandra Zaïnal
Conception & Développement : Baudouin d'Aumeries
Co-Programmation & Développement : Marc-Olivier Méhu
Soutien technique & logistique : Manuel Goepfert

Contact : metmap@orbifly.com




SOURCES & CREDITS :

   NOAA